createdAt,value
2022-09-26T00:01:32.698Z,19.52
2022-09-26T00:04:02.888Z,16.48
2022-09-26T00:06:30.294Z,16.58
2022-09-26T00:08:57.776Z,19.77
2022-09-26T00:11:27.607Z,17.20
2022-09-26T00:13:59.275Z,16.98
2022-09-26T00:16:27.239Z,18.55
2022-09-26T00:18:55.659Z,18.85
2022-09-26T00:21:23.425Z,13.75
2022-09-26T00:23:50.956Z,13.45
2022-09-26T00:26:19.998Z,16.35
2022-09-26T00:28:47.072Z,14.23
2022-09-26T00:31:30.541Z,19.05
2022-09-26T00:33:58.069Z,14.88
2022-09-26T00:36:37.029Z,13.35
2022-09-26T00:39:06.245Z,16.05
2022-09-26T00:41:33.033Z,15.65
2022-09-26T00:43:59.923Z,17.30
2022-09-26T00:46:35.779Z,16.98
2022-09-26T00:49:11.029Z,13.07
2022-09-26T00:51:41.607Z,14.40
2022-09-26T00:54:14.841Z,14.63
2022-09-26T00:56:44.674Z,13.15
2022-09-26T00:59:22.282Z,13.35
2022-09-26T01:01:51.214Z,13.70
2022-09-26T01:04:19.348Z,13.57
2022-09-26T01:06:46.787Z,17.13
2022-09-26T01:09:15.000Z,16.02
2022-09-26T01:11:43.170Z,14.52
2022-09-26T01:14:12.549Z,15.25
2022-09-26T01:16:41.868Z,23.27
2022-09-26T01:19:19.066Z,16.35
2022-09-26T01:22:21.166Z,14.90
2022-09-26T01:25:21.633Z,17.52
2022-09-26T01:27:59.120Z,16.95
2022-09-26T01:30:32.519Z,18.35
2022-09-26T01:33:07.621Z,18.98
2022-09-26T01:35:37.911Z,17.50
2022-09-26T01:38:26.868Z,21.58
2022-09-26T01:41:10.066Z,18.60
2022-09-26T01:44:01.229Z,19.27
2022-09-26T01:46:33.891Z,18.23
2022-09-26T01:49:31.165Z,17.92
2022-09-26T01:52:12.011Z,17.90
2022-09-26T01:55:16.347Z,17.23
2022-09-26T01:58:14.992Z,18.15
2022-09-26T02:00:45.338Z,16.25
2022-09-26T02:03:21.149Z,13.95
2022-09-26T02:06:05.169Z,19.48
2022-09-26T02:08:39.895Z,21.00
2022-09-26T02:11:25.512Z,14.98
2022-09-26T02:13:55.974Z,18.95
2022-09-26T02:16:39.419Z,16.90
2022-09-26T02:19:12.315Z,15.27
2022-09-26T02:21:40.963Z,15.45
2022-09-26T02:24:07.802Z,15.70
2022-09-26T02:26:34.630Z,18.02
2022-09-26T02:29:01.890Z,15.95
2022-09-26T02:31:35.586Z,16.23
2022-09-26T02:34:04.055Z,15.15
2022-09-26T02:36:34.472Z,13.50
2022-09-26T02:39:01.768Z,12.15
2022-09-26T02:41:35.772Z,13.15
2022-09-26T02:44:39.563Z,10.93
2022-09-26T02:47:27.800Z,13.27
2022-09-26T02:50:12.749Z,9.95
2022-09-26T02:53:13.689Z,10.55
2022-09-26T02:56:27.903Z,11.63
2022-09-26T02:59:01.907Z,12.13
2022-09-26T03:01:42.817Z,11.85
2022-09-26T03:04:28.741Z,11.38
2022-09-26T03:07:01.555Z,10.18
2022-09-26T03:09:30.171Z,13.20
2022-09-26T03:12:01.342Z,11.27
2022-09-26T03:14:31.239Z,12.27
2022-09-26T03:16:59.347Z,15.82
2022-09-26T03:19:47.796Z,13.13
2022-09-26T03:22:16.292Z,11.90
2022-09-26T03:24:43.463Z,11.30
2022-09-26T03:27:12.812Z,13.05
2022-09-26T03:29:39.786Z,15.32
2022-09-26T03:32:06.910Z,11.75
2022-09-26T03:34:34.108Z,13.13
2022-09-26T03:37:01.157Z,14.55
2022-09-26T03:39:27.886Z,15.10
2022-09-26T03:41:55.411Z,13.50
2022-09-26T03:44:22.216Z,12.98
2022-09-26T03:46:49.058Z,10.63
2022-09-26T03:49:16.164Z,11.80
2022-09-26T03:51:44.241Z,13.10
2022-09-26T03:54:13.133Z,12.27
2022-09-26T03:56:41.182Z,14.65
2022-09-26T03:59:08.943Z,9.98
2022-09-26T04:01:35.753Z,11.07
2022-09-26T04:04:02.461Z,11.43
2022-09-26T04:06:29.576Z,12.27
2022-09-26T04:08:56.753Z,10.85
2022-09-26T04:11:24.630Z,12.18
2022-09-26T04:13:53.534Z,8.95
2022-09-26T04:16:23.144Z,8.93
2022-09-26T04:18:56.653Z,10.23
2022-09-26T04:21:24.070Z,9.18
2022-09-26T04:23:52.883Z,12.90
2022-09-26T04:26:23.341Z,7.82
2022-09-26T04:28:54.946Z,9.85
2022-09-26T04:31:23.500Z,10.40
2022-09-26T04:33:50.753Z,10.07
2022-09-26T04:36:18.354Z,11.90
2022-09-26T04:38:45.102Z,10.90
2022-09-26T04:41:14.836Z,9.20
2022-09-26T04:43:42.062Z,11.65
2022-09-26T04:46:14.035Z,12.48
2022-09-26T04:48:43.276Z,16.38
2022-09-26T04:51:12.791Z,11.02
2022-09-26T04:53:40.356Z,15.88
2022-09-26T04:56:09.383Z,12.38
2022-09-26T04:58:37.945Z,11.23
2022-09-26T05:01:07.971Z,11.48
2022-09-26T05:03:37.074Z,12.75
2022-09-26T05:06:07.210Z,11.77
2022-09-26T05:08:34.041Z,17.60
2022-09-26T05:11:02.170Z,12.27
2022-09-26T05:13:29.602Z,19.55
2022-09-26T05:15:59.940Z,14.20
2022-09-26T05:18:27.122Z,12.02
2022-09-26T05:20:54.903Z,10.90
2022-09-26T05:23:44.990Z,30.98
2022-09-26T05:26:31.087Z,14.10
2022-09-26T05:29:07.636Z,15.75
2022-09-26T05:31:39.422Z,22.67
2022-09-26T05:34:18.719Z,17.35
2022-09-26T05:36:46.895Z,17.58
2022-09-26T05:39:32.402Z,13.80
2022-09-26T05:41:59.643Z,16.55
2022-09-26T05:44:27.397Z,15.63
2022-09-26T05:46:54.376Z,20.88
2022-09-26T05:49:21.131Z,15.63
2022-09-26T05:51:47.819Z,15.48
2022-09-26T05:54:15.272Z,10.75
2022-09-26T05:56:42.513Z,11.40
2022-09-26T05:59:09.356Z,13.50
2022-09-26T06:01:36.593Z,11.73
2022-09-26T06:04:35.563Z,18.92
2022-09-26T06:09:54.325Z,12.40
2022-09-26T06:12:21.365Z,16.15
2022-09-26T06:14:48.404Z,26.55
2022-09-26T06:22:24.513Z,17.85
2022-09-26T06:24:54.260Z,17.85
2022-09-26T06:30:10.738Z,24.58
2022-09-26T06:35:24.326Z,16.67
2022-09-26T06:37:51.706Z,21.63
2022-09-26T06:40:24.901Z,14.38
2022-09-26T06:42:51.609Z,13.88
2022-09-26T06:45:18.770Z,15.13
2022-09-26T06:47:47.311Z,19.35
2022-09-26T06:50:45.845Z,15.40
2022-09-26T06:53:12.580Z,15.60
2022-09-26T06:58:15.152Z,19.05
2022-09-26T07:00:45.138Z,16.48
2022-09-26T07:03:13.575Z,17.58
2022-09-26T07:12:02.714Z,40.95
2022-09-26T07:14:20.635Z,27.60
2022-09-26T07:19:32.760Z,14.38
2022-09-26T07:22:20.257Z,13.48
2022-09-26T07:27:29.351Z,20.83
2022-09-26T07:29:56.627Z,16.40
2022-09-26T07:32:23.350Z,19.80
2022-09-26T07:37:29.234Z,36.10
2022-09-26T07:40:00.702Z,18.55
2022-09-26T07:42:38.888Z,15.32
2022-09-26T07:45:27.868Z,19.27
2022-09-26T07:48:15.351Z,14.10
2022-09-26T07:50:42.156Z,15.73
2022-09-26T08:01:27.644Z,13.73
2022-09-26T08:03:58.518Z,12.07
2022-09-26T08:06:27.586Z,13.45
2022-09-26T08:11:31.079Z,19.85
2022-09-26T08:13:58.792Z,17.48
2022-09-26T08:16:39.601Z,15.75
2022-09-26T08:19:07.907Z,12.63
2022-09-26T08:21:44.924Z,14.77
2022-09-26T08:27:00.926Z,12.23
2022-09-26T08:32:28.565Z,14.70
2022-09-26T08:35:17.392Z,15.95
2022-09-26T08:37:44.228Z,13.80
2022-09-26T08:40:11.434Z,11.48
2022-09-26T08:46:11.012Z,11.27
2022-09-26T08:49:02.923Z,11.57
2022-09-26T08:51:40.282Z,11.55
2022-09-26T08:54:18.929Z,10.68
2022-09-26T08:56:49.983Z,12.25
2022-09-26T08:59:31.690Z,12.05
2022-09-26T09:02:02.630Z,9.27
2022-09-26T09:04:40.581Z,10.73
2022-09-26T09:07:23.021Z,10.45
2022-09-26T09:12:57.559Z,12.25
2022-09-26T09:16:00.308Z,7.95
2022-09-26T09:22:35.612Z,7.68
2022-09-26T09:28:17.228Z,9.30
2022-09-26T09:30:50.623Z,8.98
2022-09-26T09:39:32.615Z,6.78
2022-09-26T09:45:00.385Z,6.53
2022-09-26T09:47:29.306Z,5.93
2022-09-26T09:49:57.579Z,6.10
2022-09-26T09:52:55.304Z,6.63
2022-09-26T09:56:00.378Z,5.13
2022-09-26T10:01:40.787Z,6.32
2022-09-26T10:06:46.224Z,10.98
2022-09-26T10:11:52.342Z,10.75
2022-09-26T10:14:42.598Z,9.30
2022-09-26T10:17:09.347Z,8.18
2022-09-26T10:22:37.549Z,6.10
2022-09-26T10:25:08.728Z,5.22
2022-09-26T10:27:37.797Z,9.25
2022-09-26T10:33:30.263Z,5.50
2022-09-26T10:39:15.368Z,7.00
2022-09-26T10:41:44.985Z,9.32
2022-09-26T10:44:44.365Z,4.80
2022-09-26T10:47:18.408Z,5.85
2022-09-26T10:50:27.817Z,6.30
2022-09-26T10:53:03.037Z,6.40
2022-09-26T10:58:29.905Z,6.47
2022-09-26T11:01:07.476Z,6.03
2022-09-26T11:04:37.791Z,6.95
2022-09-26T11:07:07.622Z,9.20
2022-09-26T11:09:36.134Z,11.05
2022-09-26T11:12:51.355Z,5.28
2022-09-26T11:15:49.990Z,5.22
2022-09-26T11:18:25.184Z,4.45
2022-09-26T11:23:59.437Z,5.00
2022-09-26T11:30:00.136Z,5.82
2022-09-26T11:32:33.545Z,6.28
2022-09-26T11:35:14.914Z,9.88
2022-09-26T11:43:52.284Z,7.28
2022-09-26T11:50:14.385Z,9.30
2022-09-26T11:59:17.334Z,4.28
2022-09-26T12:01:59.162Z,7.85
2022-09-26T12:04:39.581Z,4.55
2022-09-26T12:07:43.920Z,5.70
2022-09-26T12:10:29.231Z,12.48
2022-09-26T12:12:57.633Z,14.45
2022-09-26T12:15:31.605Z,5.20
2022-09-26T12:24:46.634Z,8.07
2022-09-26T12:27:49.421Z,4.78
2022-09-26T12:45:53.173Z,7.38
2022-09-26T12:48:49.860Z,8.43
2022-09-26T12:51:37.457Z,5.47
2022-09-26T12:54:23.751Z,9.25
2022-09-26T12:57:24.854Z,7.68
2022-09-26T13:00:10.455Z,5.95
2022-09-26T13:03:09.444Z,6.05
2022-09-26T13:05:50.382Z,8.20
2022-09-26T13:09:01.914Z,7.18
2022-09-26T13:14:46.701Z,5.65
2022-09-26T13:17:19.932Z,11.32
2022-09-26T13:20:01.505Z,5.10
2022-09-26T13:26:03.162Z,5.00
2022-09-26T13:29:06.796Z,3.45
2022-09-26T13:38:41.496Z,4.80
2022-09-26T13:41:30.163Z,6.00
2022-09-26T13:44:19.560Z,5.63
2022-09-26T13:46:55.829Z,7.20
2022-09-26T13:52:21.107Z,7.65
2022-09-26T13:54:57.316Z,10.70
2022-09-26T14:03:19.122Z,8.20
2022-09-26T14:05:51.720Z,8.57
2022-09-26T14:08:43.378Z,7.93
2022-09-26T14:14:21.495Z,5.70
2022-09-26T14:17:00.767Z,6.72
2022-09-26T14:22:25.077Z,7.53
2022-09-26T14:24:53.178Z,5.88
2022-09-26T14:27:41.596Z,9.63
2022-09-26T14:35:38.659Z,8.13
2022-09-26T14:41:21.139Z,4.32
2022-09-26T14:43:51.164Z,4.82
2022-09-26T14:46:23.798Z,6.38
2022-09-26T14:51:40.060Z,4.95
2022-09-26T14:57:24.690Z,4.72
2022-09-26T14:59:51.613Z,4.75
2022-09-26T15:02:28.154Z,3.83
2022-09-26T15:05:11.275Z,4.22
2022-09-26T15:13:46.651Z,5.95
2022-09-26T15:16:42.419Z,9.00
2022-09-26T15:19:15.847Z,5.72
2022-09-26T15:22:13.132Z,5.55
2022-09-26T15:24:40.098Z,5.45
2022-09-26T15:27:29.015Z,7.72
2022-09-26T15:30:12.446Z,5.13
2022-09-26T15:32:39.294Z,7.07
2022-09-26T15:35:11.039Z,6.93
2022-09-26T15:38:23.555Z,7.28
2022-09-26T15:41:01.554Z,5.57
2022-09-26T15:43:34.810Z,7.60
2022-09-26T15:46:07.299Z,6.70
2022-09-26T15:48:43.874Z,6.03
2022-09-26T15:51:23.948Z,7.13
2022-09-26T15:53:59.113Z,6.35
2022-09-26T15:56:44.738Z,6.70
2022-09-26T15:59:13.601Z,6.70
2022-09-26T16:01:43.833Z,6.53
2022-09-26T16:04:27.070Z,10.40
2022-09-26T16:07:16.753Z,6.70
2022-09-26T16:09:45.951Z,6.40
2022-09-26T16:12:15.913Z,5.85
2022-09-26T16:14:51.540Z,7.65
2022-09-26T16:17:49.540Z,9.17
2022-09-26T16:20:16.314Z,9.73
2022-09-26T16:22:46.130Z,10.65
2022-09-26T16:25:32.178Z,12.88
2022-09-26T16:28:10.273Z,12.57
2022-09-26T16:33:31.422Z,8.68
2022-09-26T16:36:20.069Z,10.90
2022-09-26T16:38:54.729Z,13.73
2022-09-26T16:41:56.780Z,11.30
2022-09-26T16:44:33.615Z,12.87
2022-09-26T16:50:31.296Z,17.63
2022-09-26T16:52:58.776Z,14.80
2022-09-26T16:55:27.387Z,19.63
2022-09-26T16:57:59.857Z,23.33
2022-09-26T17:03:31.157Z,14.48
2022-09-26T17:05:59.297Z,14.40
2022-09-26T17:08:27.709Z,20.08
2022-09-26T17:11:50.641Z,14.05
2022-09-26T17:17:25.936Z,14.63
2022-09-26T17:19:59.044Z,16.08
2022-09-26T17:22:26.665Z,18.20
2022-09-26T17:25:04.786Z,16.45
2022-09-26T17:27:34.259Z,17.45
2022-09-26T17:30:03.652Z,16.70
2022-09-26T17:32:42.459Z,24.02
2022-09-26T17:39:00.602Z,27.60
2022-09-26T17:41:29.641Z,31.67
2022-09-26T17:44:00.404Z,27.52
2022-09-26T17:46:27.604Z,25.27
2022-09-26T17:48:56.131Z,30.00
2022-09-26T17:54:15.119Z,36.00
2022-09-26T18:00:25.576Z,32.65
2022-09-26T18:05:56.079Z,35.63
2022-09-26T18:08:27.296Z,35.70
2022-09-26T18:11:01.447Z,32.90
2022-09-26T18:13:31.484Z,40.47
2022-09-26T18:16:01.514Z,27.73
2022-09-26T18:21:18.942Z,28.15
2022-09-26T18:23:56.905Z,23.85
2022-09-26T18:26:47.249Z,21.00
2022-09-26T18:29:30.259Z,21.77
2022-09-26T18:32:19.903Z,19.13
2022-09-26T18:34:49.736Z,21.65
2022-09-26T18:37:16.573Z,19.00
2022-09-26T18:39:43.314Z,21.08
2022-09-26T18:42:17.533Z,16.10
2022-09-26T18:44:44.720Z,20.92
2022-09-26T18:47:17.048Z,14.20
2022-09-26T18:49:47.379Z,16.08
2022-09-26T18:52:21.299Z,21.48
2022-09-26T18:55:08.064Z,19.40
2022-09-26T18:57:54.517Z,20.85
2022-09-26T19:03:59.349Z,16.23
2022-09-26T19:10:04.104Z,23.75
2022-09-26T19:12:31.503Z,18.38
2022-09-26T19:18:44.387Z,17.13
2022-09-26T19:21:17.861Z,22.50
2022-09-26T19:33:17.283Z,22.20
2022-09-26T19:35:44.517Z,21.65
2022-09-26T19:38:22.391Z,22.13
2022-09-26T19:43:35.733Z,18.75
2022-09-26T19:46:21.485Z,28.83
2022-09-26T19:48:48.297Z,28.88
2022-09-26T19:51:16.925Z,23.63
2022-09-26T19:53:43.767Z,24.05
2022-09-26T19:56:10.718Z,24.45
2022-09-26T19:58:37.497Z,20.58
2022-09-26T20:01:18.233Z,19.50
2022-09-26T20:06:55.652Z,23.60
2022-09-26T20:09:22.426Z,23.25
2022-09-26T20:11:49.561Z,19.98
2022-09-26T20:14:26.045Z,20.08
2022-09-26T20:16:56.099Z,21.77
2022-09-26T20:22:15.331Z,17.08
2022-09-26T20:24:52.482Z,19.85
2022-09-26T20:30:50.966Z,20.13
2022-09-26T20:33:34.641Z,19.52
2022-09-26T20:36:05.311Z,19.38
2022-09-26T20:38:38.033Z,19.92
2022-09-26T20:43:40.360Z,18.60
2022-09-26T20:46:10.599Z,17.20
2022-09-26T21:12:29.268Z,15.90
2022-09-26T21:17:31.835Z,15.13
2022-09-26T21:25:46.506Z,11.77
2022-09-26T21:28:26.218Z,10.82
2022-09-26T21:33:34.198Z,11.27
2022-09-26T21:36:01.148Z,10.85
2022-09-26T21:38:27.939Z,11.90
2022-09-26T21:41:06.073Z,12.85
2022-09-26T21:43:45.169Z,11.45
2022-09-26T21:46:12.309Z,12.75
2022-09-26T21:48:39.698Z,11.27
2022-09-26T21:54:11.812Z,9.98
2022-09-26T21:57:22.773Z,10.93
2022-09-26T21:59:52.019Z,10.93
2022-09-26T22:02:50.788Z,12.13
2022-09-26T22:05:26.393Z,13.15
2022-09-26T22:07:53.178Z,10.65
2022-09-26T22:15:43.170Z,14.48
2022-09-26T22:18:13.793Z,9.80
2022-09-26T22:21:11.750Z,10.73
2022-09-26T22:23:38.640Z,11.32
2022-09-26T22:26:06.678Z,13.07
2022-09-26T22:28:33.682Z,13.30
2022-09-26T22:31:02.044Z,11.32
2022-09-26T22:33:29.063Z,11.30
2022-09-26T22:35:55.961Z,12.90
2022-09-26T22:38:23.360Z,11.65
2022-09-26T22:41:18.694Z,13.10
2022-09-26T22:44:05.898Z,11.50
2022-09-26T22:46:34.228Z,16.17
2022-09-26T22:52:28.737Z,19.55
2022-09-26T22:54:55.551Z,15.98
2022-09-26T23:00:01.885Z,13.55
2022-09-26T23:02:28.832Z,14.60
2022-09-26T23:07:41.728Z,14.52
2022-09-26T23:12:58.036Z,12.55
2022-09-26T23:16:10.817Z,12.98
2022-09-26T23:18:39.460Z,11.00
2022-09-26T23:21:27.604Z,13.65
2022-09-26T23:23:56.790Z,15.85
2022-09-26T23:26:29.361Z,14.00
2022-09-26T23:28:57.402Z,14.60
2022-09-26T23:31:25.570Z,13.90
2022-09-26T23:33:53.199Z,15.68
2022-09-26T23:36:20.065Z,13.90
2022-09-26T23:38:46.832Z,16.02
2022-09-26T23:41:14.545Z,17.33
2022-09-26T23:43:41.659Z,14.13
2022-09-26T23:46:09.508Z,15.50
2022-09-26T23:48:37.152Z,15.70
2022-09-26T23:51:04.563Z,18.50
2022-09-26T23:53:32.009Z,18.88
2022-09-26T23:56:06.056Z,21.08
2022-09-26T23:58:33.270Z,13.38
